Terminal Aerodrome Forecast
Issued by NWS

Home | Current Version | Previous Version | Text Only | Print | Product List | Glossary Off
Versions: 1 2 3 4 5 6 7 8 9 10 11 12 13 14 15

000
FTUS43 KBIS 261100
TAFMOT
TAF
KMOT 261120Z 2612/2712 27012G17KT P6SM FEW110
     FM261400 28014G19KT P6SM SCT090 BKN110
     FM261900 28008KT P6SM SCT090 SCT150
     FM270200 21005KT P6SM SCT180
     FM270400 17005KT P6SM SCT150=

USA.gov is the U.S. government's official web portal to all federal, state and local government web resources and services.